Manhattan, Indiana
Current Conditions -  °F | °C
As of 10:55 PM on Saturday 24 Jan 2015 (Local Time) from K4I7 Reporting Station
Scattered Clouds Scattered Clouds  
Wind Chill:   Ceiling: Unl
Heat Index:   Visibility: 10mi
Dew Point: -1°   Wind: 3mph
Humidity: 81%   Direction: 220°SW
Pressure: 29.74"   Gusts: NA
Location:  39.6767°N, 86.9214°W
Report Text: K4I7 250355Z AUTO 22003KT 10SM SCT120 02/M01 A2974 RMK AO2
Loading
Personal Weather Stations






























Interactive Weather Map New forecast layout! Learn more

10-Day Weather Forecast

Advertisements
Track Severe Weather on mobile